createdAt,value
2023-02-07T00:01:44.258Z,27.47
2023-02-07T00:06:46.021Z,27.73
2023-02-07T00:11:47.662Z,23.83
2023-02-07T00:16:49.350Z,23.30
2023-02-07T00:21:50.956Z,24.97
2023-02-07T00:26:52.580Z,23.87
2023-02-07T00:31:54.201Z,23.87
2023-02-07T00:36:55.927Z,22.87
2023-02-07T00:41:57.957Z,22.90
2023-02-07T00:46:59.934Z,19.37
2023-02-07T00:52:01.693Z,20.97
2023-02-07T00:57:03.340Z,19.43
2023-02-07T01:02:04.967Z,22.10
2023-02-07T01:07:09.363Z,21.00
2023-02-07T01:12:10.995Z,22.33
2023-02-07T01:17:12.785Z,23.97
2023-02-07T01:22:14.384Z,22.07
2023-02-07T01:27:15.980Z,21.23
2023-02-07T01:32:17.705Z,21.57
2023-02-07T01:37:19.476Z,19.23
2023-02-07T01:42:24.360Z,19.87
2023-02-07T01:47:26.622Z,21.57
2023-02-07T01:52:34.060Z,20.00
2023-02-07T01:57:36.479Z,21.37
2023-02-07T02:02:38.570Z,19.33
2023-02-07T02:07:40.420Z,21.00
2023-02-07T02:13:12.070Z,19.97
2023-02-07T02:18:31.149Z,20.13
2023-02-07T02:23:48.061Z,20.57
2023-02-07T02:29:26.406Z,18.23
2023-02-07T02:34:46.558Z,18.80
2023-02-07T02:40:04.981Z,18.00
2023-02-07T02:45:15.841Z,18.83
2023-02-07T02:50:29.542Z,18.27
2023-02-07T02:55:43.271Z,19.63
2023-02-07T03:00:55.312Z,17.60
2023-02-07T03:06:29.680Z,17.03
2023-02-07T03:11:40.757Z,19.93
2023-02-07T03:17:07.118Z,17.50
2023-02-07T03:22:13.665Z,17.27
2023-02-07T03:27:21.507Z,17.80
2023-02-07T03:32:30.583Z,18.57
2023-02-07T03:37:42.648Z,17.50
2023-02-07T03:42:53.192Z,19.63
2023-02-07T03:47:54.795Z,18.00
2023-02-07T03:52:56.432Z,18.27
2023-02-07T03:57:58.188Z,17.73
2023-02-07T04:03:00.106Z,17.20
2023-02-07T04:08:02.093Z,18.50
2023-02-07T04:13:03.917Z,17.87
2023-02-07T04:18:05.923Z,16.90
2023-02-07T04:23:07.577Z,18.37
2023-02-07T04:28:09.188Z,16.93
2023-02-07T04:33:11.000Z,17.70
2023-02-07T04:38:12.623Z,18.13
2023-02-07T04:43:14.250Z,19.10
2023-02-07T04:48:16.028Z,17.53
2023-02-07T04:53:17.740Z,19.37
2023-02-07T04:58:21.247Z,18.33
2023-02-07T05:03:22.882Z,18.33
2023-02-07T05:08:26.309Z,17.20
2023-02-07T05:13:28.066Z,19.13
2023-02-07T05:18:29.794Z,15.13
2023-02-07T05:23:31.497Z,16.03
2023-02-07T05:28:33.164Z,15.87
2023-02-07T05:33:34.753Z,19.57
2023-02-07T05:38:36.437Z,19.47
2023-02-07T05:43:38.037Z,19.93
2023-02-07T05:48:40.294Z,21.50
2023-02-07T05:53:41.996Z,21.27
2023-02-07T05:58:43.631Z,20.60
2023-02-07T06:03:45.260Z,19.60
2023-02-07T06:08:46.980Z,19.33
2023-02-07T06:13:49.550Z,20.50
2023-02-07T06:18:51.178Z,20.60
2023-02-07T06:23:52.802Z,19.17
2023-02-07T06:28:54.422Z,19.40
2023-02-07T06:33:56.031Z,18.47
2023-02-07T06:38:57.755Z,17.33
2023-02-07T06:43:59.508Z,19.43
2023-02-07T06:49:01.232Z,20.70
2023-02-07T06:54:08.144Z,19.07
2023-02-07T06:59:09.787Z,21.03
2023-02-07T07:04:11.501Z,22.10
2023-02-07T07:09:13.710Z,20.93
2023-02-07T07:14:15.309Z,20.23
2023-02-07T07:19:17.002Z,22.00
2023-02-07T07:24:18.671Z,20.77
2023-02-07T07:29:20.430Z,20.03
2023-02-07T07:34:22.056Z,21.67
2023-02-07T07:39:24.642Z,20.80
2023-02-07T07:44:26.255Z,21.67
2023-02-07T07:49:27.898Z,19.77
2023-02-07T07:54:30.298Z,23.60
2023-02-07T07:59:32.930Z,17.87
2023-02-07T08:04:34.676Z,14.13
2023-02-07T08:09:36.379Z,16.10
2023-02-07T08:14:37.989Z,18.83
2023-02-07T08:19:39.685Z,16.93
2023-02-07T08:24:41.977Z,20.87
2023-02-07T08:29:43.702Z,18.40
2023-02-07T08:34:45.495Z,18.37
2023-02-07T08:39:48.161Z,16.23
2023-02-07T08:44:50.620Z,12.60
2023-02-07T08:49:52.314Z,12.10
2023-02-07T08:54:53.952Z,11.53
2023-02-07T08:59:55.810Z,12.47
2023-02-07T09:04:57.513Z,15.02
2023-02-07T09:09:59.163Z,12.17
2023-02-07T09:15:01.055Z,13.07
2023-02-07T09:20:02.747Z,13.70
2023-02-07T09:25:04.617Z,11.80
2023-02-07T09:30:06.838Z,11.90
2023-02-07T09:35:09.237Z,13.50
2023-02-07T09:40:19.176Z,12.40
2023-02-07T09:45:24.181Z,11.77
2023-02-07T09:50:31.933Z,13.13
2023-02-07T09:55:46.203Z,12.45
2023-02-07T10:00:59.632Z,11.27
2023-02-07T10:06:18.845Z,12.48
2023-02-07T10:12:05.405Z,11.82
2023-02-07T10:17:32.190Z,11.95
2023-02-07T10:23:32.420Z,10.73
2023-02-07T10:28:50.893Z,15.77
2023-02-07T10:34:00.662Z,14.93
2023-02-07T10:39:12.872Z,13.27
2023-02-07T10:44:20.036Z,13.70
2023-02-07T10:49:28.066Z,14.70
2023-02-07T10:54:29.769Z,14.30
2023-02-07T10:59:46.004Z,14.88
2023-02-07T11:04:47.926Z,14.45
2023-02-07T11:09:49.794Z,14.63
2023-02-07T11:15:02.976Z,14.98
2023-02-07T11:20:06.714Z,15.88
2023-02-07T11:25:09.100Z,16.30
2023-02-07T11:30:20.541Z,17.40
2023-02-07T11:35:22.384Z,16.75
2023-02-07T11:40:41.997Z,16.40
2023-02-07T11:45:50.131Z,16.00
2023-02-07T11:50:58.125Z,16.98
2023-02-07T11:55:59.797Z,14.43
2023-02-07T12:01:03.376Z,16.08
2023-02-07T12:06:05.967Z,17.15
2023-02-07T12:11:31.760Z,16.17
2023-02-07T12:16:41.324Z,16.20
2023-02-07T12:22:11.535Z,15.18
2023-02-07T12:27:18.850Z,15.82
2023-02-07T12:32:52.380Z,16.17
2023-02-07T12:38:16.172Z,16.30
2023-02-07T12:43:23.262Z,15.40
2023-02-07T12:48:38.424Z,15.82
2023-02-07T12:53:59.714Z,14.02
2023-02-07T12:59:19.442Z,16.67
2023-02-07T13:04:40.893Z,16.75
2023-02-07T13:10:00.902Z,16.35
2023-02-07T13:15:20.995Z,15.20
2023-02-07T13:20:40.500Z,15.77
2023-02-07T13:25:44.898Z,16.17
2023-02-07T13:30:48.923Z,15.50
2023-02-07T13:35:51.891Z,15.77
2023-02-07T13:41:11.320Z,15.57
2023-02-07T13:46:42.786Z,16.50
2023-02-07T13:51:57.815Z,23.65
2023-02-07T13:57:18.978Z,15.80
2023-02-07T14:02:22.807Z,16.15
2023-02-07T14:07:29.887Z,17.80
2023-02-07T14:12:34.806Z,19.90
2023-02-07T14:17:36.354Z,17.95
2023-02-07T14:22:40.834Z,19.08
2023-02-07T14:28:03.809Z,19.65
2023-02-07T14:33:21.882Z,18.17
2023-02-07T14:38:33.847Z,19.10
2023-02-07T14:44:08.778Z,17.33
2023-02-07T14:49:16.893Z,19.48
2023-02-07T14:54:47.211Z,20.17
2023-02-07T15:00:13.428Z,18.92
2023-02-07T15:05:18.039Z,27.25
2023-02-07T15:10:26.642Z,18.92
2023-02-07T15:15:31.134Z,19.40
2023-02-07T15:20:35.575Z,20.48
2023-02-07T15:25:41.369Z,20.98
2023-02-07T15:30:57.608Z,20.52
2023-02-07T15:35:59.320Z,22.05
2023-02-07T15:41:01.507Z,23.57
2023-02-07T15:46:12.048Z,25.20
2023-02-07T15:51:15.973Z,24.55
2023-02-07T15:56:18.180Z,25.33
2023-02-07T16:01:25.970Z,23.63
2023-02-07T16:06:30.378Z,26.00
2023-02-07T16:11:39.936Z,25.70
2023-02-07T16:16:53.569Z,27.07
2023-02-07T16:22:07.371Z,32.77
2023-02-07T16:27:16.274Z,26.40
2023-02-07T16:32:17.909Z,27.33
2023-02-07T16:37:19.504Z,30.10
2023-02-07T16:42:21.238Z,30.70
2023-02-07T16:47:23.752Z,30.33
2023-02-07T16:52:25.377Z,29.60
2023-02-07T16:57:26.998Z,29.97
2023-02-07T17:02:28.637Z,30.13
2023-02-07T17:07:30.429Z,27.60
2023-02-07T17:12:32.024Z,30.30
2023-02-07T17:17:33.616Z,29.17
2023-02-07T17:22:35.426Z,27.70
2023-02-07T17:27:37.024Z,27.03
2023-02-07T17:32:38.670Z,29.33
2023-02-07T17:37:40.762Z,28.83
2023-02-07T17:42:42.348Z,25.67
2023-02-07T17:47:44.544Z,27.97
2023-02-07T17:52:46.622Z,27.90
2023-02-07T17:57:48.270Z,26.03
2023-02-07T18:02:50.069Z,28.77
2023-02-07T18:07:51.843Z,28.42
2023-02-07T18:12:53.790Z,26.35
2023-02-07T18:17:55.908Z,27.30
2023-02-07T18:22:59.008Z,27.90
2023-02-07T18:28:01.558Z,30.83
2023-02-07T18:33:03.484Z,30.27
2023-02-07T18:38:05.082Z,29.97
2023-02-07T18:43:07.524Z,31.88
2023-02-07T18:48:09.613Z,34.03
2023-02-07T18:53:12.665Z,35.80
2023-02-07T18:58:14.303Z,38.67
2023-02-07T19:03:15.935Z,36.77
2023-02-07T19:08:17.532Z,34.47
2023-02-07T19:13:19.183Z,34.97
2023-02-07T19:18:20.786Z,36.73
2023-02-07T19:23:22.385Z,36.03
2023-02-07T19:28:24.644Z,34.13
2023-02-07T19:33:26.282Z,33.37
2023-02-07T19:38:27.870Z,35.13
2023-02-07T19:43:29.998Z,35.17
2023-02-07T19:48:32.735Z,38.30
2023-02-07T19:53:35.511Z,36.03
2023-02-07T19:58:40.595Z,38.92
2023-02-07T20:03:43.927Z,40.17
2023-02-07T20:08:45.541Z,42.17
2023-02-07T20:13:50.371Z,43.57
2023-02-07T20:18:53.116Z,45.27
2023-02-07T20:23:56.307Z,56.57
2023-02-07T20:29:02.924Z,56.33
2023-02-07T20:34:05.459Z,54.30
2023-02-07T20:39:13.812Z,49.83
2023-02-07T20:44:24.528Z,46.88
2023-02-07T20:49:30.920Z,47.47
2023-02-07T20:54:32.630Z,44.10
2023-02-07T20:59:34.367Z,44.83
2023-02-07T21:04:37.501Z,42.93
2023-02-07T21:09:39.242Z,43.67
2023-02-07T21:14:41.379Z,46.57
2023-02-07T21:19:42.973Z,42.53
2023-02-07T21:24:44.569Z,42.90
2023-02-07T21:29:46.152Z,46.97
2023-02-07T21:34:48.727Z,53.40
2023-02-07T21:39:50.391Z,52.80
2023-02-07T21:44:51.976Z,51.80
2023-02-07T21:49:53.602Z,46.50
2023-02-07T21:54:55.234Z,45.07
2023-02-07T21:59:56.834Z,48.53
2023-02-07T22:04:58.425Z,45.03
2023-02-07T22:10:00.041Z,46.07
2023-02-07T22:15:01.707Z,42.80
2023-02-07T22:20:03.617Z,42.88
2023-02-07T22:25:05.559Z,47.13
2023-02-07T22:30:07.599Z,46.47
2023-02-07T22:35:09.244Z,47.37
2023-02-07T22:40:11.305Z,50.30
2023-02-07T22:45:12.903Z,48.53
2023-02-07T22:50:14.531Z,46.40
2023-02-07T22:55:16.258Z,44.23
2023-02-07T23:00:19.558Z,49.07
2023-02-07T23:05:21.214Z,47.00
2023-02-07T23:10:22.872Z,49.50
2023-02-07T23:15:24.517Z,50.87
2023-02-07T23:20:26.137Z,51.65
2023-02-07T23:25:27.760Z,44.40
2023-02-07T23:30:29.409Z,45.90
2023-02-07T23:35:31.663Z,44.73
2023-02-07T23:40:33.343Z,43.83
2023-02-07T23:45:34.955Z,46.15
2023-02-07T23:50:36.595Z,42.78
2023-02-07T23:55:42.137Z,42.65
